createdAt,value
2022-12-25T00:00:02.222Z,7.50
2022-12-25T00:00:20.225Z,7.20
2022-12-25T00:00:28.634Z,8.10
2022-12-25T00:00:40.489Z,8.40
2022-12-25T00:00:53.029Z,8.50
2022-12-25T00:01:03.801Z,8.40
2022-12-25T00:01:14.542Z,8.70
2022-12-25T00:01:25.344Z,8.20
2022-12-25T00:01:38.292Z,8.40
2022-12-25T00:01:50.804Z,8.10
2022-12-25T00:02:04.043Z,7.70
2022-12-25T00:02:16.214Z,7.50
2022-12-25T00:02:27.996Z,7.20
2022-12-25T00:02:38.877Z,7.20
2022-12-25T00:02:49.737Z,7.00
2022-12-25T00:03:00.651Z,7.60
2022-12-25T00:03:11.633Z,8.20
2022-12-25T00:03:22.554Z,8.40
2022-12-25T00:03:33.438Z,7.50
2022-12-25T00:03:44.385Z,7.80
2022-12-25T00:03:57.069Z,7.60
2022-12-25T00:04:08.005Z,7.30
2022-12-25T00:04:19.899Z,7.10
2022-12-25T00:04:31.577Z,6.80
2022-12-25T00:04:42.354Z,6.80
2022-12-25T00:04:53.091Z,6.80
2022-12-25T00:05:03.813Z,7.20
2022-12-25T00:05:14.557Z,7.40
2022-12-25T00:05:25.301Z,7.70
2022-12-25T00:05:36.052Z,7.60
2022-12-25T00:05:46.788Z,8.10
2022-12-25T00:05:57.542Z,7.90
2022-12-25T00:06:09.997Z,8.30
2022-12-25T00:06:20.719Z,7.80
2022-12-25T00:06:32.936Z,7.30
2022-12-25T00:06:43.662Z,6.90
2022-12-25T00:06:56.135Z,7.50
2022-12-25T00:07:06.865Z,7.70
2022-12-25T00:07:17.617Z,8.50
2022-12-25T00:07:28.342Z,8.50
2022-12-25T00:07:39.105Z,8.40
2022-12-25T00:07:51.312Z,8.00
2022-12-25T00:08:05.610Z,7.80
2022-12-25T00:08:18.073Z,7.50
2022-12-25T00:08:28.829Z,7.60
2022-12-25T00:08:41.303Z,7.70
2022-12-25T00:08:52.064Z,7.80
2022-12-25T00:09:04.560Z,7.80
2022-12-25T00:09:17.044Z,7.90
2022-12-25T00:09:27.814Z,8.60
2022-12-25T00:09:38.533Z,8.30
2022-12-25T00:09:49.266Z,8.00
2022-12-25T00:10:02.473Z,7.30
2022-12-25T00:10:13.223Z,8.00
2022-12-25T00:10:23.995Z,8.20
2022-12-25T00:10:39.840Z,8.90
2022-12-25T00:10:50.363Z,8.90
2022-12-25T00:11:02.128Z,8.30
2022-12-25T00:11:13.824Z,8.40
2022-12-25T00:11:24.548Z,9.00
2022-12-25T00:11:35.306Z,9.00
2022-12-25T00:11:46.022Z,8.80
2022-12-25T00:11:58.488Z,8.80
2022-12-25T00:12:10.723Z,8.60
2022-12-25T00:12:23.972Z,8.70
2022-12-25T00:12:34.722Z,8.30
2022-12-25T00:12:45.453Z,8.30
2022-12-25T00:12:56.221Z,8.80
2022-12-25T00:13:06.945Z,9.10
2022-12-25T00:13:18.643Z,9.60
2022-12-25T00:13:29.376Z,9.80
2022-12-25T00:13:40.103Z,9.40
2022-12-25T00:13:51.826Z,8.80
2022-12-25T00:14:02.567Z,8.90
2022-12-25T00:14:13.290Z,9.40
2022-12-25T00:14:24.024Z,9.30
2022-12-25T00:14:34.769Z,9.60
2022-12-25T00:14:45.525Z,9.10
2022-12-25T00:14:57.251Z,9.30
2022-12-25T00:15:07.984Z,9.20
2022-12-25T00:15:18.744Z,9.90
2022-12-25T00:15:29.502Z,9.70
2022-12-25T00:15:40.255Z,9.90
2022-12-25T00:15:51.010Z,9.00
2022-12-25T00:16:01.838Z,8.70
2022-12-25T00:16:13.612Z,8.90
2022-12-25T00:16:24.400Z,8.80
2022-12-25T00:16:35.188Z,8.70
2022-12-25T00:16:45.986Z,8.70
2022-12-25T00:16:56.746Z,8.50
2022-12-25T00:17:08.455Z,8.50
2022-12-25T00:17:19.186Z,8.20
2022-12-25T00:17:31.645Z,8.30
2022-12-25T00:17:42.378Z,8.60
2022-12-25T00:17:53.104Z,8.10
2022-12-25T00:18:03.851Z,8.80
2022-12-25T00:18:16.599Z,8.90
2022-12-25T00:18:30.324Z,9.20
2022-12-25T00:18:42.060Z,8.60
2022-12-25T00:18:54.491Z,8.40
2022-12-25T00:19:06.688Z,8.60
2022-12-25T00:19:17.453Z,9.00
2022-12-25T00:19:29.184Z,8.90
2022-12-25T00:19:39.913Z,8.80
2022-12-25T00:19:50.713Z,8.70
2022-12-25T00:20:01.468Z,8.90
2022-12-25T00:20:12.178Z,8.60
2022-12-25T00:20:22.925Z,8.30
2022-12-25T00:20:33.661Z,8.40
2022-12-25T00:20:44.407Z,9.20
2022-12-25T00:20:55.153Z,9.30
2022-12-25T00:21:06.864Z,8.80
2022-12-25T00:21:17.597Z,8.30
2022-12-25T00:21:28.342Z,8.80
2022-12-25T00:21:39.099Z,8.80
2022-12-25T00:21:49.824Z,8.90
2022-12-25T00:22:00.603Z,8.10
2022-12-25T00:22:13.054Z,8.30
2022-12-25T00:22:24.837Z,8.20
2022-12-25T00:22:37.815Z,8.90
2022-12-25T00:22:50.774Z,8.80
2022-12-25T00:23:02.515Z,8.60
2022-12-25T00:23:14.965Z,9.10
2022-12-25T00:23:25.715Z,9.00
2022-12-25T00:23:36.443Z,9.10
2022-12-25T00:23:47.181Z,7.90
2022-12-25T00:23:57.925Z,8.30
2022-12-25T00:24:08.636Z,8.50
2022-12-25T00:24:19.374Z,8.80
2022-12-25T00:24:30.116Z,8.90
2022-12-25T00:24:40.833Z,9.10
2022-12-25T00:24:51.564Z,9.10
2022-12-25T00:25:02.304Z,9.00
2022-12-25T00:25:13.055Z,9.70
2022-12-25T00:25:23.806Z,9.80
2022-12-25T00:25:34.534Z,9.00
2022-12-25T00:25:45.272Z,9.00
2022-12-25T00:25:56.008Z,8.70
2022-12-25T00:26:06.736Z,8.30
2022-12-25T00:26:17.515Z,8.60
2022-12-25T00:26:28.276Z,9.20
2022-12-25T00:26:39.006Z,9.90
2022-12-25T00:26:51.710Z,9.20
2022-12-25T00:27:02.436Z,9.20
2022-12-25T00:27:14.181Z,9.00
2022-12-25T00:27:24.907Z,9.30
2022-12-25T00:27:37.626Z,9.20
2022-12-25T00:27:48.364Z,9.60
2022-12-25T00:27:59.113Z,10.00
2022-12-25T00:28:09.893Z,9.90
2022-12-25T00:28:20.632Z,10.00
2022-12-25T00:28:34.364Z,9.50
2022-12-25T00:28:48.156Z,9.60
2022-12-25T00:29:01.785Z,10.30
2022-12-25T00:29:12.536Z,10.30
2022-12-25T00:29:24.775Z,10.20
2022-12-25T00:29:35.600Z,9.50
2022-12-25T00:29:48.535Z,9.60
2022-12-25T00:29:59.311Z,9.90
2022-12-25T00:30:10.108Z,9.60
2022-12-25T00:30:20.856Z,10.00
2022-12-25T00:30:31.613Z,10.80
2022-12-25T00:30:44.815Z,11.10
2022-12-25T00:30:57.363Z,10.80
2022-12-25T00:31:08.109Z,10.00
2022-12-25T00:31:18.888Z,10.00
2022-12-25T00:31:29.684Z,10.30
2022-12-25T00:31:40.466Z,10.70
2022-12-25T00:31:53.260Z,11.20
2022-12-25T00:32:04.046Z,11.20
2022-12-25T00:32:14.777Z,10.90
2022-12-25T00:32:28.022Z,11.10
2022-12-25T00:32:43.173Z,10.60
2022-12-25T00:32:53.945Z,11.50
2022-12-25T00:33:06.695Z,11.30
2022-12-25T00:33:17.476Z,11.20
2022-12-25T00:33:29.921Z,11.60
2022-12-25T00:33:40.639Z,12.40
2022-12-25T00:33:51.387Z,11.20
2022-12-25T00:34:02.117Z,10.90
2022-12-25T00:34:12.867Z,9.90
2022-12-25T00:34:23.608Z,9.50
2022-12-25T00:34:34.337Z,9.60
2022-12-25T00:34:45.109Z,10.30
2022-12-25T00:34:55.837Z,10.70
2022-12-25T00:35:06.589Z,10.60
2022-12-25T00:35:17.308Z,10.10
2022-12-25T00:35:28.039Z,9.70
2022-12-25T00:35:38.816Z,9.50
2022-12-25T00:35:49.597Z,9.40
2022-12-25T00:36:00.352Z,9.80
2022-12-25T00:36:11.058Z,10.90
2022-12-25T00:36:21.850Z,10.70
2022-12-25T00:36:37.795Z,11.70
2022-12-25T00:36:48.316Z,10.80
2022-12-25T00:36:59.148Z,10.80
2022-12-25T00:37:09.885Z,10.10
2022-12-25T00:37:20.621Z,10.30
2022-12-25T00:37:33.076Z,9.80
2022-12-25T00:37:44.787Z,9.70
2022-12-25T00:37:56.508Z,9.50
2022-12-25T00:38:07.246Z,10.10
2022-12-25T00:38:18.007Z,10.20
2022-12-25T00:38:28.755Z,11.40
2022-12-25T00:38:39.552Z,11.60
2022-12-25T00:38:52.528Z,11.50
2022-12-25T00:39:06.799Z,11.70
2022-12-25T00:39:18.528Z,12.10
2022-12-25T00:39:29.301Z,11.20
2022-12-25T00:39:40.073Z,10.50
2022-12-25T00:39:52.977Z,10.40
2022-12-25T00:40:03.730Z,10.50
2022-12-25T00:40:14.475Z,10.30
2022-12-25T00:40:26.184Z,10.50
2022-12-25T00:40:36.918Z,9.70
2022-12-25T00:40:47.895Z,8.90
2022-12-25T00:40:58.650Z,8.40
2022-12-25T00:41:10.890Z,9.00
2022-12-25T00:41:23.353Z,9.50
2022-12-25T00:41:36.550Z,10.10
2022-12-25T00:41:47.296Z,10.40
2022-12-25T00:41:58.027Z,10.30
2022-12-25T00:42:08.769Z,9.90
2022-12-25T00:42:19.511Z,9.80
2022-12-25T00:42:30.239Z,9.50
2022-12-25T00:42:40.985Z,9.40
2022-12-25T00:42:51.721Z,9.40
2022-12-25T00:43:04.493Z,9.60
2022-12-25T00:43:17.467Z,9.60
2022-12-25T00:43:30.418Z,9.80
2022-12-25T00:43:42.120Z,9.80
2022-12-25T00:43:55.061Z,9.70
2022-12-25T00:44:05.860Z,9.80
2022-12-25T00:44:16.592Z,9.90
2022-12-25T00:44:27.357Z,9.60
2022-12-25T00:44:38.095Z,9.30
2022-12-25T00:44:48.871Z,9.30
2022-12-25T00:44:59.600Z,9.20
2022-12-25T00:45:12.050Z,9.50
2022-12-25T00:45:23.809Z,10.30
2022-12-25T00:45:34.576Z,10.90
2022-12-25T00:45:45.394Z,10.10
2022-12-25T00:45:59.672Z,9.90
2022-12-25T00:46:10.772Z,10.10
2022-12-25T00:46:21.717Z,9.80
2022-12-25T00:46:33.981Z,9.70
2022-12-25T00:46:44.861Z,10.30
2022-12-25T00:46:55.644Z,10.40
2022-12-25T00:47:06.419Z,11.00
2022-12-25T00:47:19.669Z,10.80
2022-12-25T00:47:30.473Z,10.30
2022-12-25T00:47:41.226Z,10.20
2022-12-25T00:47:52.916Z,9.70
2022-12-25T00:48:04.606Z,9.70
2022-12-25T00:48:17.321Z,9.80
2022-12-25T00:48:28.079Z,10.00
2022-12-25T00:48:38.893Z,9.70
2022-12-25T00:48:49.698Z,9.60
2022-12-25T00:49:00.466Z,9.20
2022-12-25T00:49:12.140Z,9.30
2022-12-25T00:49:23.917Z,9.40
2022-12-25T00:49:34.709Z,10.00
2022-12-25T00:49:45.464Z,9.80
2022-12-25T00:49:56.193Z,9.40
2022-12-25T00:50:08.919Z,9.80
2022-12-25T00:50:22.256Z,9.70
2022-12-25T00:50:33.933Z,10.60
2022-12-25T00:50:44.691Z,10.50
2022-12-25T00:50:55.442Z,10.50
2022-12-25T00:51:06.211Z,9.70
2022-12-25T00:51:16.956Z,9.70
2022-12-25T00:51:29.399Z,9.50
2022-12-25T00:51:41.827Z,9.80
2022-12-25T00:51:54.264Z,10.10
2022-12-25T00:52:05.019Z,9.30
2022-12-25T00:52:15.740Z,9.00
2022-12-25T00:52:26.482Z,8.80
2022-12-25T00:52:38.907Z,9.60
2022-12-25T00:52:49.629Z,10.00
2022-12-25T00:53:00.382Z,9.90
2022-12-25T00:53:11.117Z,9.20
2022-12-25T00:53:23.872Z,9.20
2022-12-25T00:53:37.115Z,8.90
2022-12-25T00:53:48.834Z,8.90
2022-12-25T00:53:59.583Z,9.60
2022-12-25T00:54:10.329Z,9.20
2022-12-25T00:54:21.069Z,8.70
2022-12-25T00:54:31.839Z,8.80
2022-12-25T00:54:42.559Z,9.40
2022-12-25T00:54:53.326Z,9.80
2022-12-25T00:55:04.080Z,9.80
2022-12-25T00:55:14.821Z,9.60
2022-12-25T00:55:26.631Z,9.50
2022-12-25T00:55:37.425Z,9.20
2022-12-25T00:55:48.158Z,9.20
2022-12-25T00:55:58.914Z,8.60
2022-12-25T00:56:09.668Z,9.10
2022-12-25T00:56:22.135Z,9.80
2022-12-25T00:56:32.868Z,10.00
2022-12-25T00:56:43.612Z,9.60
2022-12-25T00:56:55.334Z,9.00
2022-12-25T00:57:06.096Z,8.50
2022-12-25T00:57:16.818Z,8.40
2022-12-25T00:57:29.548Z,8.70
2022-12-25T00:57:40.310Z,8.60
2022-12-25T00:57:51.093Z,8.30
2022-12-25T00:58:01.862Z,8.60
2022-12-25T00:58:13.551Z,8.60
2022-12-25T00:58:24.279Z,8.20
2022-12-25T00:58:36.004Z,8.80
2022-12-25T00:58:48.698Z,8.70
2022-12-25T00:58:59.450Z,8.70
2022-12-25T00:59:10.190Z,9.10
2022-12-25T00:59:20.972Z,9.00
2022-12-25T00:59:34.921Z,9.00
2022-12-25T00:59:48.234Z,9.10
2022-12-25T00:59:59.972Z,9.10
2022-12-25T01:00:11.790Z,8.70
2022-12-25T01:00:25.503Z,8.40
2022-12-25T01:00:37.494Z,8.40
2022-12-25T01:00:49.286Z,8.50
2022-12-25T01:01:01.047Z,8.30
2022-12-25T01:01:12.891Z,8.40
2022-12-25T01:01:23.781Z,8.60
2022-12-25T01:01:37.520Z,8.80
2022-12-25T01:01:48.532Z,8.30
2022-12-25T01:02:00.404Z,8.30
2022-12-25T01:02:11.262Z,8.90
2022-12-25T01:02:22.265Z,9.20
2022-12-25T01:02:35.125Z,9.10
2022-12-25T01:02:48.188Z,8.80
2022-12-25T01:02:59.325Z,9.10
2022-12-25T01:03:10.401Z,8.80
2022-12-25T01:03:21.290Z,8.30
2022-12-25T01:03:32.075Z,8.60
2022-12-25T01:03:43.819Z,9.10
2022-12-25T01:03:54.561Z,8.90
2022-12-25T01:04:05.312Z,8.40
2022-12-25T01:04:16.157Z,8.60
2022-12-25T01:04:28.623Z,8.50
2022-12-25T01:04:41.118Z,8.60
2022-12-25T01:04:51.869Z,8.90
2022-12-25T01:05:04.111Z,9.10
2022-12-25T01:05:14.832Z,8.80
2022-12-25T01:05:26.570Z,9.40
2022-12-25T01:05:37.324Z,9.60
2022-12-25T01:05:49.751Z,9.30
2022-12-25T01:06:01.495Z,8.30
2022-12-25T01:06:12.230Z,8.20
2022-12-25T01:06:23.949Z,9.40
2022-12-25T01:06:34.733Z,9.60
2022-12-25T01:06:45.535Z,9.40
2022-12-25T01:06:57.782Z,9.20
2022-12-25T01:07:10.298Z,8.90
2022-12-25T01:07:21.066Z,9.40
2022-12-25T01:07:31.862Z,8.90
2022-12-25T01:07:44.304Z,9.10
2022-12-25T01:07:56.049Z,9.20
2022-12-25T01:08:07.752Z,9.40
2022-12-25T01:08:18.509Z,9.40
2022-12-25T01:08:29.241Z,9.10
2022-12-25T01:08:40.040Z,9.10
2022-12-25T01:08:51.539Z,8.70
2022-12-25T01:09:02.285Z,8.20
2022-12-25T01:09:13.041Z,8.30
2022-12-25T01:09:23.792Z,9.10
2022-12-25T01:09:34.521Z,9.40
2022-12-25T01:09:45.252Z,10.00
2022-12-25T01:09:56.008Z,10.10
2022-12-25T01:10:06.775Z,9.70
2022-12-25T01:10:17.502Z,9.60
2022-12-25T01:10:29.916Z,9.50
2022-12-25T01:10:40.641Z,9.70
2022-12-25T01:10:51.392Z,10.20
2022-12-25T01:11:02.153Z,9.70
2022-12-25T01:11:12.913Z,9.50
2022-12-25T01:11:23.628Z,9.20
2022-12-25T01:11:34.398Z,9.30
2022-12-25T01:11:45.146Z,9.30
2022-12-25T01:11:55.885Z,9.60
2022-12-25T01:12:06.847Z,10.40
2022-12-25T01:12:17.601Z,10.30
2022-12-25T01:12:28.374Z,10.00
2022-12-25T01:12:39.100Z,9.80
2022-12-25T01:12:49.864Z,9.40
2022-12-25T01:13:00.622Z,9.20
2022-12-25T01:13:12.391Z,9.30
2022-12-25T01:13:24.142Z,9.90
2022-12-25T01:13:34.935Z,9.90
2022-12-25T01:13:45.689Z,10.10
2022-12-25T01:13:58.617Z,10.80
2022-12-25T01:14:09.383Z,11.00
2022-12-25T01:14:20.112Z,11.30
2022-12-25T01:14:30.919Z,9.60
2022-12-25T01:14:41.670Z,9.90
2022-12-25T01:14:52.402Z,10.30
2022-12-25T01:15:03.197Z,10.50
2022-12-25T01:15:13.981Z,10.20
2022-12-25T01:15:24.724Z,9.50
2022-12-25T01:15:35.494Z,9.40
2022-12-25T01:15:47.244Z,9.10
2022-12-25T01:15:58.040Z,9.10
2022-12-25T01:16:10.556Z,9.10
2022-12-25T01:16:22.370Z,8.90
2022-12-25T01:16:33.187Z,8.30
2022-12-25T01:16:45.044Z,8.50
2022-12-25T01:16:55.862Z,8.50
2022-12-25T01:17:06.582Z,8.50
2022-12-25T01:17:19.032Z,8.50
2022-12-25T01:17:29.862Z,9.00
2022-12-25T01:17:40.603Z,9.40
2022-12-25T01:17:51.356Z,9.90
2022-12-25T01:18:07.745Z,9.60
2022-12-25T01:18:18.725Z,9.20
2022-12-25T01:18:31.937Z,9.70
2022-12-25T01:18:42.674Z,9.80
2022-12-25T01:18:53.435Z,9.80
2022-12-25T01:19:05.131Z,9.30
2022-12-25T01:19:15.861Z,9.50
2022-12-25T01:19:26.623Z,9.20
2022-12-25T01:19:37.384Z,9.50
2022-12-25T01:19:48.127Z,9.50
2022-12-25T01:19:58.874Z,10.00
2022-12-25T01:20:09.611Z,9.80
2022-12-25T01:20:22.069Z,10.30
2022-12-25T01:20:33.792Z,9.90
2022-12-25T01:20:44.545Z,9.60
2022-12-25T01:20:55.287Z,9.50
2022-12-25T01:21:06.030Z,9.90
2022-12-25T01:21:16.773Z,9.80
2022-12-25T01:21:28.448Z,10.00
2022-12-25T01:21:39.188Z,9.60
2022-12-25T01:21:49.942Z,9.20
2022-12-25T01:22:02.132Z,9.40
2022-12-25T01:22:12.871Z,9.30
2022-12-25T01:22:23.606Z,9.40
2022-12-25T01:22:34.352Z,9.40
2022-12-25T01:22:45.083Z,9.60
2022-12-25T01:22:55.824Z,9.40
2022-12-25T01:23:06.582Z,9.20
2022-12-25T01:23:19.104Z,9.30
2022-12-25T01:23:31.346Z,9.80
2022-12-25T01:23:43.802Z,9.80
2022-12-25T01:23:54.553Z,8.70
2022-12-25T01:24:05.356Z,8.70
2022-12-25T01:24:17.054Z,8.40
2022-12-25T01:24:28.775Z,8.70
2022-12-25T01:24:39.534Z,8.30
2022-12-25T01:24:51.684Z,9.20
2022-12-25T01:25:04.116Z,9.20
2022-12-25T01:25:15.813Z,9.60
2022-12-25T01:25:29.054Z,8.30
2022-12-25T01:25:39.776Z,7.90
2022-12-25T01:25:50.522Z,8.20
2022-12-25T01:26:02.242Z,8.70
2022-12-25T01:26:12.993Z,9.00
2022-12-25T01:26:23.776Z,8.70
2022-12-25T01:26:38.544Z,8.30
2022-12-25T01:26:49.284Z,8.50
2022-12-25T01:27:01.493Z,9.10
2022-12-25T01:27:12.318Z,9.30
2022-12-25T01:27:23.114Z,9.10
2022-12-25T01:27:37.476Z,9.10
2022-12-25T01:27:50.721Z,8.40
2022-12-25T01:28:02.423Z,8.50
2022-12-25T01:28:13.205Z,8.30
2022-12-25T01:28:25.618Z,9.10
2022-12-25T01:28:38.627Z,8.80
2022-12-25T01:28:49.346Z,8.90
2022-12-25T01:29:00.088Z,8.90
2022-12-25T01:29:10.865Z,8.60
2022-12-25T01:29:21.626Z,8.60
2022-12-25T01:29:32.425Z,8.40
2022-12-25T01:29:43.196Z,8.50
2022-12-25T01:29:53.947Z,9.30
2022-12-25T01:30:04.686Z,8.90
2022-12-25T01:30:16.386Z,9.80
2022-12-25T01:30:27.131Z,9.40
2022-12-25T01:30:40.358Z,9.80
2022-12-25T01:30:53.276Z,9.30
2022-12-25T01:31:04.008Z,9.80
2022-12-25T01:31:14.821Z,9.30
2022-12-25T01:31:26.551Z,9.20
2022-12-25T01:31:37.314Z,9.20
2022-12-25T01:31:48.128Z,9.60
2022-12-25T01:31:58.937Z,9.40
2022-12-25T01:32:09.720Z,9.10
2022-12-25T01:32:21.445Z,8.90
2022-12-25T01:32:32.174Z,9.20
2022-12-25T01:32:42.938Z,9.20
2022-12-25T01:32:53.670Z,9.40
2022-12-25T01:33:04.407Z,9.20
2022-12-25T01:33:15.158Z,8.90
2022-12-25T01:33:25.877Z,9.40
2022-12-25T01:33:38.080Z,9.40
2022-12-25T01:33:51.304Z,9.30
2022-12-25T01:34:04.279Z,8.30
2022-12-25T01:34:16.033Z,8.20
2022-12-25T01:34:26.804Z,8.50
2022-12-25T01:34:38.505Z,8.60
2022-12-25T01:34:55.524Z,8.50
2022-12-25T01:35:04.896Z,9.00
2022-12-25T01:35:15.651Z,8.90
2022-12-25T01:35:26.376Z,8.60
2022-12-25T01:35:38.843Z,8.30
2022-12-25T01:35:51.288Z,8.80
2022-12-25T01:36:02.029Z,9.20
2022-12-25T01:36:12.765Z,8.90
2022-12-25T01:36:25.224Z,8.90
2022-12-25T01:36:36.904Z,8.90
2022-12-25T01:36:47.713Z,9.20
2022-12-25T01:36:59.467Z,9.40
2022-12-25T01:37:11.932Z,9.00
2022-12-25T01:37:24.372Z,9.80
2022-12-25T01:37:36.102Z,10.20
2022-12-25T01:37:46.835Z,9.80
2022-12-25T01:38:00.096Z,8.80
2022-12-25T01:38:12.305Z,9.30
2022-12-25T01:38:23.092Z,9.20
2022-12-25T01:38:33.850Z,9.40
2022-12-25T01:38:45.590Z,9.20
2022-12-25T01:38:58.040Z,9.60
2022-12-25T01:39:08.775Z,9.70
2022-12-25T01:39:19.518Z,9.90
2022-12-25T01:39:30.340Z,10.30
2022-12-25T01:39:41.068Z,10.10
2022-12-25T01:39:52.811Z,9.80
2022-12-25T01:40:03.559Z,9.10
2022-12-25T01:40:15.266Z,9.30
2022-12-25T01:40:25.997Z,9.20
2022-12-25T01:40:38.416Z,9.40
2022-12-25T01:40:49.161Z,9.90
2022-12-25T01:40:59.941Z,10.30
2022-12-25T01:41:10.696Z,10.10
2022-12-25T01:41:21.447Z,10.00
2022-12-25T01:41:32.207Z,9.80
2022-12-25T01:41:43.168Z,10.00
2022-12-25T01:41:53.916Z,9.70
2022-12-25T01:42:04.654Z,9.60
2022-12-25T01:42:15.398Z,8.90
2022-12-25T01:42:26.138Z,9.20
2022-12-25T01:42:39.342Z,9.20
2022-12-25T01:42:50.115Z,9.50
2022-12-25T01:43:00.827Z,9.40
2022-12-25T01:43:17.034Z,9.60
2022-12-25T01:43:27.192Z,9.80
2022-12-25T01:43:37.928Z,9.80
2022-12-25T01:43:48.659Z,9.80
2022-12-25T01:44:00.918Z,9.60
2022-12-25T01:44:15.128Z,8.90
2022-12-25T01:44:28.349Z,8.90
2022-12-25T01:44:41.077Z,9.40
2022-12-25T01:44:51.808Z,9.80
2022-12-25T01:45:03.508Z,9.40
2022-12-25T01:45:14.287Z,9.50
2022-12-25T01:45:25.064Z,9.60
2022-12-25T01:45:35.878Z,10.20
2022-12-25T01:45:46.674Z,10.30
2022-12-25T01:45:59.661Z,10.10
2022-12-25T01:46:12.177Z,9.30
2022-12-25T01:46:22.977Z,9.90
2022-12-25T01:46:34.673Z,9.70
2022-12-25T01:46:45.457Z,9.40
2022-12-25T01:46:57.157Z,9.70
2022-12-25T01:47:08.751Z,9.90
2022-12-25T01:47:21.534Z,10.00
2022-12-25T01:47:32.257Z,10.00
2022-12-25T01:47:44.690Z,10.50
2022-12-25T01:47:55.427Z,10.10
2022-12-25T01:48:06.174Z,10.10
2022-12-25T01:48:18.636Z,10.50
2022-12-25T01:48:31.368Z,10.00
2022-12-25T01:48:42.119Z,10.40
2022-12-25T01:48:54.553Z,10.00
2022-12-25T01:49:06.775Z,9.50
2022-12-25T01:49:18.737Z,8.60
2022-12-25T01:49:29.467Z,9.10
2022-12-25T01:49:40.251Z,9.40
2022-12-25T01:49:53.447Z,9.30
2022-12-25T01:50:05.877Z,9.40
2022-12-25T01:50:16.627Z,9.60
2022-12-25T01:50:27.388Z,9.50
2022-12-25T01:50:38.165Z,9.40
2022-12-25T01:50:48.906Z,9.70
2022-12-25T01:51:00.613Z,9.40
2022-12-25T01:51:11.338Z,9.60
2022-12-25T01:51:23.067Z,9.70
2022-12-25T01:51:35.547Z,10.00
2022-12-25T01:51:46.267Z,10.00
2022-12-25T01:51:57.008Z,9.90
2022-12-25T01:52:09.938Z,9.50
2022-12-25T01:52:24.196Z,9.20
2022-12-25T01:52:35.337Z,10.00
2022-12-25T01:52:46.078Z,10.00
2022-12-25T01:52:57.800Z,9.90
2022-12-25T01:53:08.561Z,9.50
2022-12-25T01:53:19.299Z,9.30
2022-12-25T01:53:30.037Z,9.70
2022-12-25T01:53:43.246Z,9.80
2022-12-25T01:53:53.972Z,9.40
2022-12-25T01:54:04.738Z,9.80
2022-12-25T01:54:16.940Z,10.30
2022-12-25T01:54:30.190Z,11.00
2022-12-25T01:54:42.438Z,10.50
2022-12-25T01:54:54.661Z,9.70
2022-12-25T01:55:06.446Z,10.80
2022-12-25T01:55:17.195Z,11.10
2022-12-25T01:55:28.923Z,10.50
2022-12-25T01:55:39.792Z,9.60
2022-12-25T01:55:52.418Z,9.30
2022-12-25T01:56:03.158Z,9.70
2022-12-25T01:56:13.889Z,10.60
2022-12-25T01:56:25.638Z,10.50
2022-12-25T01:56:36.397Z,10.10
2022-12-25T01:56:48.828Z,10.90
2022-12-25T01:57:00.541Z,11.10
2022-12-25T01:57:11.332Z,10.90
2022-12-25T01:57:22.969Z,10.90
2022-12-25T01:57:34.721Z,10.40
2022-12-25T01:57:45.476Z,10.10
2022-12-25T01:57:56.247Z,10.00
2022-12-25T01:58:07.969Z,10.80
2022-12-25T01:58:18.718Z,11.00
2022-12-25T01:58:30.914Z,10.80
2022-12-25T01:58:43.348Z,10.30
2022-12-25T01:58:55.602Z,10.50
2022-12-25T01:59:06.339Z,10.20
2022-12-25T01:59:17.104Z,10.30
2022-12-25T01:59:27.845Z,10.40
2022-12-25T01:59:38.628Z,10.40
2022-12-25T01:59:49.374Z,10.20
2022-12-25T02:00:01.345Z,10.40
2022-12-25T02:00:12.126Z,10.90
2022-12-25T02:00:24.559Z,11.50
2022-12-25T02:00:36.371Z,11.70
2022-12-25T02:00:47.162Z,11.10
2022-12-25T02:00:57.990Z,10.70
2022-12-25T02:01:09.776Z,10.80
2022-12-25T02:01:20.637Z,11.60
2022-12-25T02:01:31.548Z,12.20
2022-12-25T02:01:42.529Z,12.00
2022-12-25T02:01:53.573Z,11.80
2022-12-25T02:02:04.496Z,11.80
2022-12-25T02:02:15.438Z,11.80
2022-12-25T02:02:26.340Z,11.40
2022-12-25T02:02:37.280Z,11.20
2022-12-25T02:02:48.180Z,11.50
2022-12-25T02:02:59.191Z,11.70
2022-12-25T02:03:10.008Z,11.80
2022-12-25T02:03:22.505Z,11.20
2022-12-25T02:03:33.360Z,12.00
2022-12-25T02:03:44.141Z,12.10
2022-12-25T02:03:54.862Z,12.00
2022-12-25T02:04:05.641Z,11.40
2022-12-25T02:04:16.372Z,12.10
2022-12-25T02:04:27.110Z,12.50
2022-12-25T02:04:39.115Z,13.60
2022-12-25T02:04:52.520Z,12.70
2022-12-25T02:05:05.289Z,12.10
2022-12-25T02:05:18.977Z,11.10
2022-12-25T02:05:29.737Z,9.50
2022-12-25T02:05:40.462Z,9.00
2022-12-25T02:05:53.430Z,9.70
2022-12-25T02:06:04.180Z,11.00
2022-12-25T02:06:14.921Z,10.90
2022-12-25T02:06:27.350Z,11.40
2022-12-25T02:06:39.760Z,11.80
2022-12-25T02:06:53.020Z,12.20
2022-12-25T02:07:03.782Z,11.50
2022-12-25T02:07:16.250Z,11.80
2022-12-25T02:07:27.032Z,11.60
2022-12-25T02:07:38.710Z,11.70
2022-12-25T02:07:51.162Z,11.10
2022-12-25T02:08:04.420Z,10.90
2022-12-25T02:08:15.187Z,11.00
2022-12-25T02:08:28.123Z,11.30
2022-12-25T02:08:38.858Z,11.50
2022-12-25T02:08:51.069Z,11.10
2022-12-25T02:09:02.819Z,11.30
2022-12-25T02:09:16.059Z,11.20
2022-12-25T02:09:26.790Z,10.60
2022-12-25T02:09:40.019Z,10.10
2022-12-25T02:09:51.710Z,10.10
2022-12-25T02:10:02.449Z,9.70
2022-12-25T02:10:13.181Z,9.70
2022-12-25T02:10:23.955Z,9.80
2022-12-25T02:10:35.698Z,9.90
2022-12-25T02:10:47.408Z,10.00
2022-12-25T02:10:58.151Z,10.00
2022-12-25T02:11:08.890Z,10.00
2022-12-25T02:11:19.631Z,10.00
2022-12-25T02:11:30.390Z,10.20
2022-12-25T02:11:41.121Z,9.40
2022-12-25T02:11:51.878Z,9.50
2022-12-25T02:12:02.678Z,9.90
2022-12-25T02:12:14.355Z,10.40
2022-12-25T02:12:26.772Z,9.40
2022-12-25T02:12:37.524Z,9.50
2022-12-25T02:12:49.735Z,9.60
2022-12-25T02:13:00.501Z,9.50
2022-12-25T02:13:11.220Z,9.10
2022-12-25T02:13:21.969Z,8.60
2022-12-25T02:13:32.692Z,8.30
2022-12-25T02:13:45.180Z,7.90
2022-12-25T02:13:55.914Z,8.10
2022-12-25T02:14:06.673Z,8.80
2022-12-25T02:14:17.433Z,8.80
2022-12-25T02:14:28.192Z,8.60
2022-12-25T02:14:38.968Z,8.00
2022-12-25T02:14:49.723Z,8.30
2022-12-25T02:15:05.851Z,8.60
2022-12-25T02:15:18.602Z,8.50
2022-12-25T02:15:30.579Z,8.70
2022-12-25T02:15:41.361Z,8.00
2022-12-25T02:15:52.111Z,7.90
2022-12-25T02:16:04.570Z,7.50
2022-12-25T02:16:16.430Z,7.80
2022-12-25T02:16:28.731Z,8.20
2022-12-25T02:16:56.511Z,8.60
2022-12-25T02:16:56.897Z,8.60
2022-12-25T02:17:10.443Z,7.80
2022-12-25T02:17:21.251Z,7.40
2022-12-25T02:17:32.102Z,7.10
2022-12-25T02:17:42.821Z,8.00
2022-12-25T02:17:53.606Z,7.80
2022-12-25T02:18:04.350Z,7.90
2022-12-25T02:18:17.331Z,7.80
2022-12-25T02:18:28.121Z,8.00
2022-12-25T02:18:38.851Z,7.60
2022-12-25T02:18:51.831Z,7.50
2022-12-25T02:19:02.567Z,8.10
2022-12-25T02:19:15.302Z,8.80
2022-12-25T02:19:29.135Z,9.40
2022-12-25T02:19:39.911Z,10.30
2022-12-25T02:19:50.692Z,10.30
2022-12-25T02:20:01.444Z,9.60
2022-12-25T02:20:13.142Z,8.90
2022-12-25T02:20:24.869Z,8.50
2022-12-25T02:20:35.602Z,8.40
2022-12-25T02:20:47.307Z,8.80
2022-12-25T02:20:58.063Z,8.90
2022-12-25T02:21:08.807Z,8.70
2022-12-25T02:21:19.564Z,8.10
2022-12-25T02:21:32.768Z,8.10
2022-12-25T02:21:43.494Z,8.50
2022-12-25T02:21:54.277Z,8.30
2022-12-25T02:22:05.012Z,8.30
2022-12-25T02:22:16.720Z,8.40
2022-12-25T02:22:27.453Z,8.50
2022-12-25T02:22:39.152Z,9.30
2022-12-25T02:22:49.983Z,9.60
2022-12-25T02:23:00.730Z,9.50
2022-12-25T02:23:12.445Z,9.60
2022-12-25T02:23:23.185Z,9.80
2022-12-25T02:23:33.931Z,10.00
2022-12-25T02:23:44.701Z,9.80
2022-12-25T02:23:55.426Z,9.50
2022-12-25T02:24:06.199Z,9.80
2022-12-25T02:24:16.933Z,9.40
2022-12-25T02:24:27.670Z,9.80
2022-12-25T02:24:38.405Z,9.80
2022-12-25T02:24:49.143Z,10.20
2022-12-25T02:25:02.111Z,10.00
2022-12-25T02:25:12.842Z,9.50
2022-12-25T02:25:24.623Z,9.90
2022-12-25T02:25:37.866Z,10.10
2022-12-25T02:25:50.332Z,10.40
2022-12-25T02:26:01.074Z,9.70
2022-12-25T02:26:14.284Z,9.00
2022-12-25T02:26:27.493Z,9.60
2022-12-25T02:26:38.285Z,10.10
2022-12-25T02:26:49.260Z,10.40
2022-12-25T02:27:00.031Z,10.90
2022-12-25T02:27:12.474Z,10.90
2022-12-25T02:27:24.927Z,10.80
2022-12-25T02:27:38.635Z,10.60
2022-12-25T02:27:51.098Z,9.90
2022-12-25T02:28:01.874Z,9.90
2022-12-25T02:28:14.315Z,10.50
2022-12-25T02:28:25.056Z,10.30
2022-12-25T02:28:41.034Z,9.80
2022-12-25T02:28:53.888Z,9.00
2022-12-25T02:29:04.620Z,8.70
2022-12-25T02:29:15.374Z,9.60
2022-12-25T02:29:27.606Z,10.10
2022-12-25T02:29:39.843Z,10.60
2022-12-25T02:29:52.092Z,10.40
2022-12-25T02:30:02.856Z,10.50
2022-12-25T02:30:13.604Z,10.30
2022-12-25T02:30:26.034Z,10.80
2022-12-25T02:30:38.567Z,11.20
2022-12-25T02:30:49.305Z,10.90